createdAt,value
2018-02-07T00:01:30.894Z,73.78
2018-02-07T00:03:59.012Z,73.83
2018-02-07T00:06:27.153Z,73.35
2018-02-07T00:08:55.258Z,73.48
2018-02-07T00:11:23.376Z,73.61
2018-02-07T00:13:51.498Z,73.47
2018-02-07T00:16:19.623Z,73.78
2018-02-07T00:18:47.731Z,74.34
2018-02-07T00:21:16.897Z,73.92
2018-02-07T00:23:45.074Z,74.37
2018-02-07T00:26:13.136Z,73.63
2018-02-07T00:28:41.274Z,73.98
2018-02-07T00:31:09.384Z,73.51
2018-02-07T00:33:37.494Z,74.50
2018-02-07T00:36:05.598Z,74.64
2018-02-07T00:38:33.709Z,74.46
2018-02-07T00:41:01.811Z,73.80
2018-02-07T00:43:34.421Z,74.26
2018-02-07T00:46:02.534Z,74.33
2018-02-07T00:48:30.638Z,74.78
2018-02-07T00:50:58.753Z,74.39
2018-02-07T00:53:26.857Z,74.69
2018-02-07T00:55:54.976Z,74.15
2018-02-07T00:58:23.086Z,74.20
2018-02-07T01:00:51.204Z,74.36
2018-02-07T01:03:19.314Z,74.33
2018-02-07T01:05:47.436Z,74.21
2018-02-07T01:08:15.549Z,74.26
2018-02-07T01:10:43.673Z,74.07
2018-02-07T01:13:11.805Z,73.97
2018-02-07T01:15:39.908Z,73.46
2018-02-07T01:18:13.164Z,74.03
2018-02-07T01:20:41.277Z,73.98
2018-02-07T01:23:09.410Z,74.62
2018-02-07T01:25:37.514Z,73.90
2018-02-07T01:28:06.584Z,74.12
2018-02-07T01:30:34.700Z,73.68
2018-02-07T01:33:09.745Z,73.93
2018-02-07T01:35:37.846Z,73.49
2018-02-07T01:38:05.954Z,73.79
2018-02-07T01:40:34.085Z,74.24
2018-02-07T01:43:02.197Z,74.25
2018-02-07T01:45:30.345Z,74.14
2018-02-07T01:47:58.434Z,74.56
2018-02-07T01:50:26.546Z,73.69
2018-02-07T01:52:54.708Z,73.65
2018-02-07T01:55:22.785Z,74.33
2018-02-07T01:57:50.891Z,74.31
2018-02-07T02:00:19.006Z,74.32
2018-02-07T02:02:47.124Z,73.98
2018-02-07T02:05:15.232Z,74.89
2018-02-07T02:07:43.349Z,74.53
2018-02-07T02:10:12.383Z,74.67
2018-02-07T02:12:40.524Z,74.18
2018-02-07T02:15:08.619Z,73.86
2018-02-07T02:17:36.756Z,74.04
2018-02-07T02:20:04.867Z,75.20
2018-02-07T02:22:32.988Z,75.17
2018-02-07T02:25:01.100Z,74.66
2018-02-07T02:27:29.225Z,74.34
2018-02-07T02:29:57.315Z,74.92
2018-02-07T02:32:25.434Z,74.65
2018-02-07T02:34:53.534Z,75.27
2018-02-07T02:37:21.647Z,74.52
2018-02-07T02:39:56.278Z,74.40
2018-02-07T02:42:24.379Z,74.72
2018-02-07T02:44:52.486Z,75.19
2018-02-07T02:47:20.604Z,74.54
2018-02-07T02:49:48.741Z,74.55
2018-02-07T02:52:22.715Z,75.84
2018-02-07T02:54:50.832Z,75.39
2018-02-07T02:57:18.942Z,74.96
2018-02-07T02:59:47.134Z,74.57
2018-02-07T03:02:15.257Z,74.49
2018-02-07T03:04:43.366Z,75.34
2018-02-07T03:07:11.519Z,75.72
2018-02-07T03:09:39.618Z,75.89
2018-02-07T03:12:07.738Z,75.25
2018-02-07T03:14:35.854Z,74.78
2018-02-07T03:17:03.970Z,75.38
2018-02-07T03:19:32.089Z,75.44
2018-02-07T03:22:00.186Z,75.48
2018-02-07T03:24:28.312Z,76.15
2018-02-07T03:27:06.836Z,75.58
2018-02-07T03:29:34.934Z,76.42
2018-02-07T03:32:03.040Z,74.82
2018-02-07T03:34:38.918Z,75.62
2018-02-07T03:37:07.034Z,74.62
2018-02-07T03:39:35.146Z,75.13
2018-02-07T03:42:03.242Z,74.87
2018-02-07T03:44:31.382Z,75.08
2018-02-07T03:46:59.490Z,75.79
2018-02-07T03:49:27.624Z,74.98
2018-02-07T03:51:55.752Z,75.17
2018-02-07T03:54:23.864Z,75.82
2018-02-07T03:56:51.993Z,75.15
2018-02-07T03:59:20.094Z,75.87
2018-02-07T04:01:48.210Z,75.38
2018-02-07T04:04:16.322Z,74.99
2018-02-07T04:06:44.465Z,75.53
2018-02-07T04:09:12.592Z,75.52
2018-02-07T04:11:40.717Z,75.75
2018-02-07T04:14:08.814Z,74.91
2018-02-07T04:16:36.930Z,75.79
2018-02-07T04:19:05.035Z,75.25
2018-02-07T04:21:33.149Z,75.41
2018-02-07T04:24:01.259Z,75.13
2018-02-07T04:26:29.399Z,75.16
2018-02-07T04:28:57.506Z,75.19
2018-02-07T04:31:25.628Z,75.37
2018-02-07T04:33:53.748Z,75.00
2018-02-07T04:36:21.859Z,76.24
2018-02-07T04:38:49.984Z,76.20
2018-02-07T04:41:18.084Z,76.07
2018-02-07T04:43:46.199Z,76.08
2018-02-07T04:46:14.298Z,76.02
2018-02-07T04:48:42.420Z,76.19
2018-02-07T04:51:10.519Z,75.32
2018-02-07T04:53:38.711Z,75.71
2018-02-07T04:56:06.828Z,76.21
2018-02-07T04:58:34.945Z,76.08
2018-02-07T05:01:03.055Z,76.12
2018-02-07T05:03:31.168Z,76.12
2018-02-07T05:05:59.280Z,76.36
2018-02-07T05:08:27.407Z,76.71
2018-02-07T05:10:55.514Z,76.79
2018-02-07T05:13:23.630Z,76.13
2018-02-07T05:15:51.735Z,76.24
2018-02-07T05:18:19.848Z,76.34
2018-02-07T05:20:47.981Z,75.98
2018-02-07T05:23:16.104Z,76.59
2018-02-07T05:25:44.256Z,77.07
2018-02-07T05:28:25.527Z,76.30
2018-02-07T05:30:53.646Z,76.35
2018-02-07T05:33:21.750Z,77.05
2018-02-07T05:35:54.230Z,76.87
2018-02-07T05:38:22.343Z,77.28
2018-02-07T05:40:51.386Z,76.71
2018-02-07T05:43:19.508Z,76.38
2018-02-07T05:45:47.610Z,77.07
2018-02-07T05:48:15.722Z,78.27
2018-02-07T05:50:43.857Z,77.87
2018-02-07T05:53:11.981Z,77.57
2018-02-07T05:55:40.088Z,77.13
2018-02-07T05:58:08.220Z,77.35
2018-02-07T06:00:36.336Z,78.25
2018-02-07T06:03:04.478Z,77.47
2018-02-07T06:05:32.578Z,78.12
2018-02-07T06:08:00.690Z,78.66
2018-02-07T06:10:28.811Z,77.86
2018-02-07T06:13:16.248Z,78.01
2018-02-07T06:15:44.380Z,78.31
2018-02-07T06:18:12.476Z,79.14
2018-02-07T06:20:40.600Z,78.70
2018-02-07T06:23:08.720Z,78.97
2018-02-07T06:25:36.836Z,78.16
2018-02-07T06:28:04.962Z,78.77
2018-02-07T06:30:33.068Z,78.46
2018-02-07T06:33:01.197Z,77.69
2018-02-07T06:35:29.414Z,79.74
2018-02-07T06:38:01.548Z,78.27
2018-02-07T06:40:35.960Z,78.31
2018-02-07T06:43:04.074Z,78.49
2018-02-07T06:45:32.174Z,78.62
2018-02-07T06:48:04.285Z,77.87
2018-02-07T06:50:32.386Z,77.26
2018-02-07T06:53:19.322Z,78.42
2018-02-07T06:55:47.433Z,78.96
2018-02-07T06:58:15.552Z,79.38
2018-02-07T07:00:43.674Z,78.87
2018-02-07T07:03:11.788Z,80.27
2018-02-07T07:05:42.974Z,80.60
2018-02-07T07:08:11.286Z,79.75
2018-02-07T07:10:39.514Z,78.97
2018-02-07T07:13:07.644Z,78.82
2018-02-07T07:15:38.746Z,78.42
2018-02-07T07:18:06.878Z,79.08
2018-02-07T07:20:44.942Z,79.12
2018-02-07T07:23:13.103Z,78.38
2018-02-07T07:25:44.453Z,78.91
2018-02-07T07:28:17.262Z,78.80
2018-02-07T07:30:45.373Z,78.70
2018-02-07T07:33:15.414Z,78.62
2018-02-07T07:35:43.557Z,79.47
2018-02-07T07:38:11.688Z,78.90
2018-02-07T07:40:39.802Z,78.96
2018-02-07T07:43:07.904Z,78.67
2018-02-07T07:45:45.758Z,79.14
2018-02-07T07:48:14.790Z,79.49
2018-02-07T07:50:43.826Z,79.20
2018-02-07T07:53:11.968Z,79.18
2018-02-07T07:55:40.066Z,76.67
2018-02-07T07:58:10.219Z,77.37
2018-02-07T08:00:39.283Z,77.92
2018-02-07T08:03:11.456Z,78.06
2018-02-07T08:05:39.552Z,78.50
2018-02-07T08:08:07.680Z,78.74
2018-02-07T08:10:35.830Z,78.49
2018-02-07T08:13:09.745Z,78.13
2018-02-07T08:15:41.834Z,78.40
2018-02-07T08:18:09.950Z,77.91
2018-02-07T08:20:38.082Z,77.81
2018-02-07T08:23:06.221Z,77.81
2018-02-07T08:25:34.355Z,77.83
2018-02-07T08:28:02.610Z,78.61
2018-02-07T08:30:30.718Z,77.41
2018-02-07T08:32:59.858Z,77.80
2018-02-07T08:35:27.974Z,78.74
2018-02-07T08:37:56.112Z,78.81
2018-02-07T08:40:24.221Z,78.20
2018-02-07T08:42:52.353Z,77.24
2018-02-07T08:45:20.452Z,75.47
2018-02-07T08:47:48.550Z,76.03
2018-02-07T08:50:21.205Z,75.41
2018-02-07T08:52:49.317Z,74.51
2018-02-07T08:55:17.465Z,72.46
2018-02-07T08:57:59.215Z,71.11
2018-02-07T09:00:27.342Z,70.72
2018-02-07T09:02:55.478Z,72.94
2018-02-07T09:05:23.610Z,73.51
2018-02-07T09:07:51.716Z,73.45
2018-02-07T09:10:23.784Z,72.55
2018-02-07T09:12:51.934Z,72.64
2018-02-07T09:15:20.066Z,71.98
2018-02-07T09:17:49.156Z,71.94
2018-02-07T09:20:17.276Z,71.91
2018-02-07T09:22:46.402Z,71.50
2018-02-07T09:25:14.549Z,71.97
2018-02-07T09:27:46.522Z,71.62
2018-02-07T09:30:14.648Z,70.63
2018-02-07T09:32:42.773Z,71.18
2018-02-07T09:35:10.893Z,70.23
2018-02-07T09:37:40.943Z,69.46
2018-02-07T09:40:09.078Z,69.81
2018-02-07T09:42:38.106Z,69.53
2018-02-07T09:45:06.248Z,68.82
2018-02-07T09:47:34.368Z,68.94
2018-02-07T09:50:02.515Z,69.56
2018-02-07T09:52:30.639Z,69.12
2018-02-07T09:55:02.478Z,67.41
2018-02-07T09:57:32.615Z,66.55
2018-02-07T10:00:00.716Z,67.18
2018-02-07T10:02:30.775Z,65.99
2018-02-07T10:04:58.903Z,65.96
2018-02-07T10:07:33.126Z,66.04
2018-02-07T10:10:11.745Z,64.98
2018-02-07T10:12:41.859Z,64.36
2018-02-07T10:15:14.574Z,64.53
2018-02-07T10:17:42.714Z,65.45
2018-02-07T10:20:15.155Z,65.65
2018-02-07T10:22:43.315Z,64.70
2018-02-07T10:25:11.432Z,63.97
2018-02-07T10:27:39.532Z,64.26
2018-02-07T10:30:07.643Z,68.89
2018-02-07T10:32:38.954Z,61.45
2018-02-07T10:35:07.076Z,62.73
2018-02-07T10:37:35.187Z,63.44
2018-02-07T10:40:03.336Z,63.65
2018-02-07T10:42:31.436Z,64.49
2018-02-07T10:44:59.574Z,63.73
2018-02-07T10:47:27.678Z,63.06
2018-02-07T10:49:55.795Z,63.20
2018-02-07T10:52:23.930Z,63.70
2018-02-07T10:54:52.036Z,64.02
2018-02-07T10:57:25.834Z,64.85
2018-02-07T10:59:53.960Z,64.07
2018-02-07T11:02:22.074Z,65.43
2018-02-07T11:04:50.223Z,64.44
2018-02-07T11:07:18.338Z,64.07
2018-02-07T11:09:46.458Z,64.21
2018-02-07T11:12:15.520Z,64.34
2018-02-07T11:14:48.474Z,65.36
2018-02-07T11:17:16.591Z,63.83
2018-02-07T11:19:44.698Z,64.68
2018-02-07T11:22:12.814Z,63.95
2018-02-07T11:24:40.975Z,63.04
2018-02-07T11:27:09.124Z,63.68
2018-02-07T11:29:37.453Z,63.63
2018-02-07T11:32:07.428Z,62.76
2018-02-07T11:34:36.491Z,61.67
2018-02-07T11:37:04.708Z,60.91
2018-02-07T11:39:32.807Z,60.58
2018-02-07T11:42:04.644Z,60.48
2018-02-07T11:44:32.768Z,60.67
2018-02-07T11:47:00.877Z,61.43
2018-02-07T11:49:28.981Z,60.07
2018-02-07T11:51:57.118Z,60.69
2018-02-07T11:54:25.261Z,58.67
2018-02-07T11:56:54.390Z,58.60
2018-02-07T11:59:22.515Z,57.87
2018-02-07T12:01:56.100Z,58.50
2018-02-07T12:04:24.214Z,57.55
2018-02-07T12:06:53.072Z,58.23
2018-02-07T12:09:22.248Z,58.95
2018-02-07T12:11:50.366Z,59.55
2018-02-07T12:14:19.400Z,60.08
2018-02-07T12:16:47.522Z,59.75
2018-02-07T12:19:18.929Z,59.26
2018-02-07T12:21:47.092Z,59.81
2018-02-07T12:24:15.205Z,59.51
2018-02-07T12:26:43.339Z,59.40
2018-02-07T12:29:11.443Z,60.46
2018-02-07T12:31:39.568Z,59.78
2018-02-07T12:34:07.675Z,59.93
2018-02-07T12:36:35.786Z,59.37
2018-02-07T12:39:04.988Z,59.53
2018-02-07T12:41:34.026Z,59.05
2018-02-07T12:44:02.218Z,58.28
2018-02-07T12:46:30.320Z,57.39
2018-02-07T12:48:58.505Z,56.80
2018-02-07T12:51:47.437Z,55.60
2018-02-07T12:54:15.538Z,55.88
2018-02-07T12:56:43.658Z,54.71
2018-02-07T12:59:11.784Z,54.81
2018-02-07T13:01:43.290Z,54.73
2018-02-07T13:04:11.399Z,54.42
2018-02-07T13:06:42.927Z,55.33
2018-02-07T13:09:11.037Z,53.21
2018-02-07T13:11:44.166Z,52.12
2018-02-07T13:14:12.277Z,53.21
2018-02-07T13:16:40.387Z,52.69
2018-02-07T13:19:08.526Z,52.86
2018-02-07T13:21:36.643Z,52.73
2018-02-07T13:24:04.764Z,52.10
2018-02-07T13:26:33.818Z,53.11
2018-02-07T13:29:01.969Z,51.47
2018-02-07T13:31:30.978Z,52.26
2018-02-07T13:33:59.071Z,52.55
2018-02-07T13:36:30.109Z,52.16
2018-02-07T13:38:58.226Z,52.77
2018-02-07T13:41:26.354Z,53.06
2018-02-07T13:43:54.469Z,52.22
2018-02-07T13:46:28.875Z,51.54
2018-02-07T13:48:56.974Z,51.54
2018-02-07T13:51:25.229Z,51.54
2018-02-07T13:53:53.345Z,52.16
2018-02-07T13:56:21.450Z,51.52
2018-02-07T13:58:49.585Z,51.50
2018-02-07T14:01:17.701Z,51.59
2018-02-07T14:03:45.834Z,52.21
2018-02-07T14:06:13.978Z,51.37
2018-02-07T14:08:45.077Z,52.14
2018-02-07T14:11:13.178Z,52.33
2018-02-07T14:13:41.322Z,52.47
2018-02-07T14:16:09.432Z,53.00
2018-02-07T14:18:43.195Z,52.62
2018-02-07T14:21:11.571Z,53.67
2018-02-07T14:23:40.041Z,53.48
2018-02-07T14:26:08.169Z,53.09
2018-02-07T14:28:37.231Z,53.88
2018-02-07T14:31:05.336Z,53.00
2018-02-07T14:33:33.443Z,54.56
2018-02-07T14:36:01.556Z,55.59
2018-02-07T14:38:29.662Z,56.25
2018-02-07T14:40:57.798Z,55.58
2018-02-07T14:43:27.952Z,55.66
2018-02-07T14:45:57.033Z,56.35
2018-02-07T14:48:37.072Z,56.12
2018-02-07T14:51:08.906Z,56.11
2018-02-07T14:53:37.024Z,55.84
2018-02-07T14:56:06.069Z,56.16
2018-02-07T14:58:34.192Z,56.20
2018-02-07T15:01:09.036Z,56.17
2018-02-07T15:03:40.942Z,55.82
2018-02-07T15:06:09.055Z,56.60
2018-02-07T15:08:37.192Z,55.87
2018-02-07T15:11:15.759Z,55.81
2018-02-07T15:13:47.658Z,56.15
2018-02-07T15:16:15.777Z,56.24
2018-02-07T15:18:44.834Z,57.09
2018-02-07T15:21:12.948Z,57.47
2018-02-07T15:23:43.016Z,57.93
2018-02-07T15:26:11.127Z,58.20
2018-02-07T15:28:39.246Z,57.99
2018-02-07T15:31:07.376Z,58.49
2018-02-07T15:33:46.519Z,58.37
2018-02-07T15:36:15.577Z,59.40
2018-02-07T15:38:43.682Z,58.40
2018-02-07T15:41:16.965Z,58.07
2018-02-07T15:43:45.064Z,58.80
2018-02-07T15:46:14.113Z,59.26
2018-02-07T15:48:44.230Z,59.50
2018-02-07T15:51:12.392Z,59.92
2018-02-07T15:53:40.499Z,59.26
2018-02-07T15:56:08.598Z,59.31
2018-02-07T15:58:37.657Z,59.71
2018-02-07T16:03:59.350Z,59.95
2018-02-07T16:06:27.501Z,59.34
2018-02-07T16:08:56.037Z,59.78
2018-02-07T16:11:28.419Z,60.32
2018-02-07T16:14:01.922Z,60.49
2018-02-07T16:16:30.998Z,60.24
2018-02-07T16:18:59.485Z,60.27
2018-02-07T16:21:28.817Z,60.16
2018-02-07T16:23:57.044Z,60.00
2018-02-07T16:26:25.180Z,60.05
2018-02-07T16:28:54.287Z,60.02
2018-02-07T16:31:32.834Z,60.32
2018-02-07T16:34:00.954Z,60.75
2018-02-07T16:36:29.191Z,65.02
2018-02-07T16:38:57.303Z,60.21
2018-02-07T16:41:30.038Z,60.28
2018-02-07T16:43:58.164Z,59.98
2018-02-07T16:46:26.458Z,61.19
2018-02-07T16:48:54.594Z,67.58
2018-02-07T16:51:22.755Z,61.04
2018-02-07T16:54:12.275Z,60.49
2018-02-07T16:56:40.379Z,60.63
2018-02-07T16:59:08.490Z,60.25
2018-02-07T17:01:36.634Z,60.21
2018-02-07T17:04:04.743Z,60.65
2018-02-07T17:06:35.840Z,60.40
2018-02-07T17:09:03.943Z,60.14
2018-02-07T17:11:32.050Z,60.07
2018-02-07T17:14:02.092Z,60.03
2018-02-07T17:16:32.141Z,60.26
2018-02-07T17:19:00.265Z,63.83
2018-02-07T17:21:30.314Z,60.05
2018-02-07T17:23:58.444Z,60.60
2018-02-07T17:26:28.512Z,61.10
2018-02-07T17:28:56.630Z,62.79
2018-02-07T17:31:36.062Z,62.46
2018-02-07T17:34:04.193Z,62.71
2018-02-07T17:36:32.324Z,62.71
2018-02-07T17:39:00.465Z,62.88
2018-02-07T17:41:28.568Z,62.85
2018-02-07T17:43:56.671Z,63.59
2018-02-07T17:46:24.815Z,61.98
2018-02-07T17:48:52.978Z,62.34
2018-02-07T17:51:23.014Z,62.30
2018-02-07T17:53:54.389Z,63.28
2018-02-07T17:56:22.516Z,63.44
2018-02-07T17:58:53.975Z,62.12
2018-02-07T18:01:25.895Z,62.02
2018-02-07T18:03:54.011Z,63.09
2018-02-07T18:06:27.899Z,62.72
2018-02-07T18:08:59.715Z,80.30
2018-02-07T18:11:27.999Z,60.23
2018-02-07T18:13:56.086Z,61.94
2018-02-07T18:16:24.195Z,63.77
2018-02-07T18:18:52.320Z,62.82
2018-02-07T18:21:20.418Z,64.14
2018-02-07T18:23:48.531Z,64.90
2018-02-07T18:26:16.656Z,65.23
2018-02-07T18:28:44.776Z,65.83
2018-02-07T18:31:12.874Z,65.65
2018-02-07T18:33:41.012Z,66.25
2018-02-07T18:36:12.508Z,66.03
2018-02-07T18:38:40.633Z,68.07
2018-02-07T18:41:09.668Z,64.55
2018-02-07T18:43:37.784Z,65.47
2018-02-07T18:46:05.900Z,64.44
2018-02-07T18:48:34.005Z,65.03
2018-02-07T18:51:02.110Z,65.89
2018-02-07T18:53:30.272Z,66.49
2018-02-07T18:55:58.382Z,66.19
2018-02-07T18:58:26.486Z,66.95
2018-02-07T19:00:54.600Z,67.59
2018-02-07T19:03:22.698Z,67.53
2018-02-07T19:05:50.817Z,66.44
2018-02-07T19:08:18.936Z,65.12
2018-02-07T19:10:53.342Z,65.07
2018-02-07T19:13:25.338Z,65.16
2018-02-07T19:15:53.442Z,64.29
2018-02-07T19:18:29.563Z,64.69
2018-02-07T19:20:59.601Z,65.84
2018-02-07T19:23:27.710Z,66.70
2018-02-07T19:26:00.942Z,66.03
2018-02-07T19:28:29.065Z,65.56
2018-02-07T19:31:04.856Z,67.17
2018-02-07T19:33:32.994Z,67.39
2018-02-07T19:36:01.202Z,67.30
2018-02-07T19:38:31.273Z,67.90
2018-02-07T19:40:59.380Z,67.91
2018-02-07T19:43:29.386Z,67.12
2018-02-07T19:45:57.522Z,66.90
2018-02-07T19:48:25.634Z,67.25
2018-02-07T19:50:54.661Z,67.03
2018-02-07T19:53:22.780Z,68.11
2018-02-07T19:55:50.914Z,67.11
2018-02-07T19:58:19.376Z,67.58
2018-02-07T20:00:48.465Z,68.20
2018-02-07T20:03:17.487Z,68.92
2018-02-07T20:05:45.595Z,69.18
2018-02-07T20:08:13.734Z,68.14
2018-02-07T20:10:41.823Z,68.20
2018-02-07T20:13:09.947Z,67.63
2018-02-07T20:15:44.014Z,68.56
2018-02-07T20:18:16.067Z,69.10
2018-02-07T20:20:44.207Z,69.39
2018-02-07T20:23:15.601Z,68.93
2018-02-07T20:25:43.727Z,68.74
2018-02-07T20:28:11.833Z,69.83
2018-02-07T20:30:39.938Z,70.36
2018-02-07T20:33:12.277Z,70.23
2018-02-07T20:35:40.397Z,70.46
2018-02-07T20:38:11.458Z,70.14
2018-02-07T20:40:46.079Z,69.27
2018-02-07T20:43:15.094Z,69.16
2018-02-07T20:45:45.149Z,69.47
2018-02-07T20:48:13.245Z,70.81
2018-02-07T20:50:49.704Z,70.45
2018-02-07T20:53:17.814Z,70.92
2018-02-07T20:55:45.932Z,70.78
2018-02-07T20:58:14.807Z,69.88
2018-02-07T21:00:42.916Z,69.96
2018-02-07T21:03:14.838Z,69.90
2018-02-07T21:05:42.952Z,70.23
2018-02-07T21:08:15.511Z,71.26
2018-02-07T21:10:43.615Z,71.18
2018-02-07T21:13:26.360Z,70.44
2018-02-07T21:15:54.484Z,70.86
2018-02-07T21:18:23.569Z,71.11
2018-02-07T21:20:51.666Z,71.47
2018-02-07T21:23:28.378Z,71.73
2018-02-07T21:25:56.493Z,71.45
2018-02-07T21:28:24.612Z,71.30
2018-02-07T21:30:52.719Z,72.35
2018-02-07T21:33:20.856Z,72.08
2018-02-07T21:35:56.695Z,71.71
2018-02-07T21:38:24.831Z,72.05
2018-02-07T21:40:52.949Z,72.63
2018-02-07T21:43:21.080Z,72.70
2018-02-07T21:45:52.718Z,72.78
2018-02-07T21:48:20.839Z,72.77
2018-02-07T21:51:05.428Z,72.63
2018-02-07T21:53:33.548Z,72.80
2018-02-07T21:56:15.701Z,72.00
2018-02-07T21:58:43.798Z,71.82
2018-02-07T22:01:11.910Z,72.07
2018-02-07T22:03:42.930Z,72.48
2018-02-07T22:06:11.034Z,72.82
2018-02-07T22:08:39.185Z,72.96
2018-02-07T22:11:07.282Z,72.54
2018-02-07T22:13:35.413Z,72.56
2018-02-07T22:16:03.520Z,72.66
2018-02-07T22:18:31.652Z,72.75
2018-02-07T22:20:59.761Z,73.73
2018-02-07T22:23:27.867Z,73.58
2018-02-07T22:25:55.982Z,73.10
2018-02-07T22:28:38.474Z,73.58
2018-02-07T22:31:06.590Z,72.60
2018-02-07T22:33:34.813Z,73.88
2018-02-07T22:36:02.991Z,73.25
2018-02-07T22:38:31.070Z,73.41
2018-02-07T22:40:59.208Z,74.31
2018-02-07T22:43:27.332Z,74.74
2018-02-07T22:45:55.445Z,73.72
2018-02-07T22:48:23.538Z,73.51
2018-02-07T22:50:51.654Z,73.35
2018-02-07T22:53:19.762Z,73.86
2018-02-07T22:55:47.876Z,73.69
2018-02-07T22:58:16.008Z,74.31
2018-02-07T23:00:44.124Z,74.61
2018-02-07T23:03:12.220Z,74.08
2018-02-07T23:05:40.348Z,74.15
2018-02-07T23:08:08.434Z,74.20
2018-02-07T23:10:36.547Z,75.14
2018-02-07T23:13:10.670Z,75.22
2018-02-07T23:15:39.720Z,74.94
2018-02-07T23:18:07.846Z,74.32
2018-02-07T23:20:35.960Z,74.67
2018-02-07T23:23:04.070Z,75.09
2018-02-07T23:25:32.178Z,74.67
2018-02-07T23:28:00.294Z,74.96
2018-02-07T23:30:31.916Z,75.24
2018-02-07T23:33:00.030Z,75.43
2018-02-07T23:35:28.161Z,75.37
2018-02-07T23:37:56.276Z,75.08
2018-02-07T23:40:24.441Z,75.28
2018-02-07T23:42:52.556Z,74.50
2018-02-07T23:45:20.701Z,75.40
2018-02-07T23:47:48.825Z,75.22
2018-02-07T23:50:16.959Z,75.25
2018-02-07T23:52:45.060Z,75.18
2018-02-07T23:55:13.195Z,75.08
2018-02-07T23:57:56.248Z,75.80
